Skip Navigation Links Skip Navigation Links

Current Weather

Tri-County Regional, Lone Rock, Wis.

For information only: do not use for flight planning or navigation.
Latest weather
Observation time Friday, December 3, 2021 3:56 AM CST
Local time Friday, December 3, 2021 4:22 AM CST
Flight conditions Visual Meteorological Conditions
Winds
Wind direction East-Northeast (70°)
Wind speed 7 mph
Visibility 10 mi.
Sky condition
Ceiling 7,000 ft. overcast
Cloud layer overcast 7,000 ft.
Temperature 37°F
Dewpoint 34°F
Altimeter 30.03 in.Hg
Derived measurements
Relative humidity 89%
Wind chill 32°F
Density altitude -790 ft.
Sea-level pressure 30.02 in.Hg
Remarks
Fully automated report.
Automated weather observing station with precipitation discriminator.
METAR KLNR 030956Z AUTO 07006KT 10SM OVC070 03/01 A3003 RMK AO2 SLP167 T00280011

Settings

Location code

InnerDrive.Weather 4.0.6770.0 Release CLR 4.0.30319.42000
Copyright ©2018 Inner Drive Technology. All rights reserved. Portions Copyright ©1986-2018 David Braverman.

Find weather

Site navigation


Skip Navigation Links

Place info

Page info

PayPal - The safer, easier way to pay online!

Return home.

Copyright ©2021 Inner Drive Technology. Purveyors of fine, hand-crafted computer software. Page printed 2021-12-03T10:22:32 UTC.